Sn Luis Obisp, California
Current Conditions -  °F | °C
As of 1:56 AM on Thursday 23 Oct 2014 (Local Time) from KSBP Reporting Station
Clear Clear  
Wind Chill: 56°   Ceiling: Unl
Heat Index: 56°   Visibility: 10mi
Dew Point: 44°   Wind: 5mph
Humidity: 64%   Direction: 100°E
Pressure: 29.97"   Gusts: NA
Location:  35.2807°N, 120.661°W
Report Text: KSBP 230856Z AUTO 10004KT 10SM CLR 13/07 A2997 RMK AO2 SLP146 T01330067 56005
Loading
Personal Weather Stations






























Interactive Weather Map
Tropical Storm Tracking
New forecast layout! Learn more

10-Day Weather Forecast

Advertisements
Track Severe Weather on mobile